Kevin

Kevin

Skill-test PPL SEP(A)

Wat was het heet in de cockpit (281225Z 06009KT 010V110 9999 FEW048 26/11 Q1023). Met een totaal van 45:40 uur (10:05 Solo en 35:35 DUAL) voor aanvang van de Skill-test, rondde Kevin zijn examen af in 1:40 uur.

2018-07-04T16:28:18+00:00